createdAt,value
2023-03-15T00:00:56.277Z,73.39
2023-03-15T00:03:27.292Z,73.37
2023-03-15T00:05:54.073Z,73.42
2023-03-15T00:08:22.086Z,73.28
2023-03-15T00:10:49.112Z,73.33
2023-03-15T00:13:17.537Z,73.24
2023-03-15T00:15:50.067Z,73.34
2023-03-15T00:18:18.817Z,73.20
2023-03-15T00:20:47.280Z,73.16
2023-03-15T00:23:14.980Z,73.19
2023-03-15T00:25:45.626Z,73.29
2023-03-15T00:28:12.978Z,73.36
2023-03-15T00:30:40.154Z,72.94
2023-03-15T00:33:08.457Z,73.01
2023-03-15T00:35:39.559Z,73.01
2023-03-15T00:38:06.693Z,72.90
2023-03-15T00:40:34.000Z,72.96
2023-03-15T00:43:00.968Z,72.95
2023-03-15T00:45:27.898Z,73.04
2023-03-15T00:47:55.755Z,72.83
2023-03-15T00:50:24.521Z,72.75
2023-03-15T00:52:51.640Z,72.89
2023-03-15T00:55:19.873Z,72.79
2023-03-15T00:57:48.555Z,73.12
2023-03-15T01:00:25.148Z,72.98
2023-03-15T01:02:53.854Z,72.87
2023-03-15T01:05:22.206Z,72.68
2023-03-15T01:07:49.677Z,72.70
2023-03-15T01:10:17.487Z,72.60
2023-03-15T01:12:45.791Z,72.48
2023-03-15T01:15:14.778Z,72.32
2023-03-15T01:17:43.215Z,72.13
2023-03-15T01:20:14.509Z,72.41
2023-03-15T01:22:43.138Z,72.28
2023-03-15T01:25:10.574Z,72.36
2023-03-15T01:27:37.909Z,72.15
2023-03-15T01:30:06.889Z,72.19
2023-03-15T01:32:34.528Z,72.21
2023-03-15T01:35:01.869Z,71.85
2023-03-15T01:37:28.812Z,72.04
2023-03-15T01:39:55.976Z,71.94
2023-03-15T01:42:22.917Z,71.86
2023-03-15T01:44:53.590Z,72.11
2023-03-15T01:47:20.841Z,71.94
2023-03-15T01:49:54.048Z,72.31
2023-03-15T01:52:27.993Z,72.04
2023-03-15T01:55:13.310Z,71.94
2023-03-15T01:57:56.452Z,71.89
2023-03-15T02:00:26.517Z,71.94
2023-03-15T02:03:09.620Z,71.96
2023-03-15T02:05:46.513Z,71.75
2023-03-15T02:08:20.510Z,71.56
2023-03-15T02:10:53.602Z,71.87
2023-03-15T02:13:23.744Z,71.80
2023-03-15T02:15:53.756Z,71.50
2023-03-15T02:18:36.403Z,71.63
2023-03-15T02:21:16.436Z,71.70
2023-03-15T02:23:45.679Z,71.33
2023-03-15T02:26:50.726Z,71.51
2023-03-15T02:29:19.106Z,71.36
2023-03-15T02:31:49.255Z,71.06
2023-03-15T02:34:16.136Z,71.04
2023-03-15T02:36:42.976Z,71.10
2023-03-15T02:39:18.869Z,71.07
2023-03-15T02:41:50.747Z,70.93
2023-03-15T02:44:32.335Z,70.63
2023-03-15T02:47:11.338Z,70.66
2023-03-15T02:49:43.188Z,70.47
2023-03-15T02:52:10.796Z,70.52
2023-03-15T02:54:43.410Z,70.54
2023-03-15T02:57:11.931Z,70.45
2023-03-15T02:59:39.254Z,70.14
2023-03-15T03:02:06.807Z,70.25
2023-03-15T03:04:34.894Z,70.12
2023-03-15T03:07:02.101Z,69.93
2023-03-15T03:09:37.449Z,70.06
2023-03-15T03:12:04.841Z,70.29
2023-03-15T03:14:33.477Z,70.10
2023-03-15T03:17:01.754Z,70.09
2023-03-15T03:19:29.090Z,69.91
2023-03-15T03:21:57.645Z,69.97
2023-03-15T03:24:26.004Z,69.83
2023-03-15T03:26:58.296Z,69.82
2023-03-15T03:29:28.356Z,69.88
2023-03-15T03:31:57.541Z,69.96
2023-03-15T03:34:24.431Z,69.93
2023-03-15T03:36:51.317Z,69.75
2023-03-15T03:39:28.183Z,69.64
2023-03-15T03:41:56.887Z,69.57
2023-03-15T03:44:23.894Z,69.66
2023-03-15T03:46:50.987Z,69.66
2023-03-15T03:49:17.862Z,69.78
2023-03-15T03:51:45.394Z,69.76
2023-03-15T03:54:12.331Z,69.76
2023-03-15T03:56:39.905Z,69.93
2023-03-15T03:59:07.014Z,69.94
2023-03-15T04:01:49.840Z,69.84
2023-03-15T04:04:17.547Z,69.86
2023-03-15T04:06:48.299Z,69.89
2023-03-15T04:09:19.018Z,69.87
2023-03-15T04:11:48.406Z,70.15
2023-03-15T04:14:16.804Z,69.91
2023-03-15T04:16:46.067Z,69.84
2023-03-15T04:19:16.449Z,70.06
2023-03-15T04:21:47.580Z,69.97
2023-03-15T04:24:23.589Z,70.18
2023-03-15T04:27:01.636Z,70.26
2023-03-15T04:30:05.755Z,70.38
2023-03-15T04:32:59.279Z,70.34
2023-03-15T04:35:45.965Z,70.40
2023-03-15T04:38:42.052Z,70.50
2023-03-15T04:41:11.428Z,70.41
2023-03-15T04:44:00.834Z,70.56
2023-03-15T04:46:59.960Z,70.32
2023-03-15T04:49:38.069Z,70.43
2023-03-15T04:52:25.455Z,70.18
2023-03-15T04:55:07.084Z,70.36
2023-03-15T04:57:52.944Z,70.63
2023-03-15T05:00:38.873Z,70.71
2023-03-15T05:03:19.236Z,70.72
2023-03-15T05:05:57.035Z,70.68
2023-03-15T05:08:38.994Z,70.53
2023-03-15T05:11:20.747Z,70.70
2023-03-15T05:13:50.593Z,70.68
2023-03-15T05:16:36.220Z,70.73
2023-03-15T05:19:15.612Z,70.98
2023-03-15T05:22:05.393Z,70.83
2023-03-15T05:24:51.803Z,70.86
2023-03-15T05:27:44.957Z,70.81
2023-03-15T05:30:32.530Z,70.83
2023-03-15T05:33:01.467Z,71.01
2023-03-15T05:35:56.651Z,71.36
2023-03-15T05:38:45.742Z,71.05
2023-03-15T05:41:24.032Z,71.29
2023-03-15T05:44:10.971Z,71.09
2023-03-15T05:47:06.600Z,71.18
2023-03-15T05:49:58.123Z,71.34
2023-03-15T05:52:44.225Z,71.74
2023-03-15T05:55:33.265Z,71.75
2023-03-15T05:58:14.592Z,71.74
2023-03-15T06:01:01.912Z,71.77
2023-03-15T06:03:51.356Z,71.64
2023-03-15T06:06:23.483Z,71.53
2023-03-15T06:08:50.602Z,71.86
2023-03-15T06:11:17.471Z,71.80
2023-03-15T06:13:45.618Z,71.54
2023-03-15T06:16:21.114Z,71.79
2023-03-15T06:18:54.819Z,71.90
2023-03-15T06:21:21.775Z,71.80
2023-03-15T06:23:49.778Z,71.99
2023-03-15T06:26:19.542Z,72.02
2023-03-15T06:28:48.671Z,72.15
2023-03-15T06:31:15.971Z,72.12
2023-03-15T06:33:50.853Z,72.24
2023-03-15T06:36:19.327Z,72.10
2023-03-15T06:38:46.213Z,72.10
2023-03-15T06:41:16.626Z,72.06
2023-03-15T06:43:44.546Z,72.22
2023-03-15T06:46:13.306Z,72.09
2023-03-15T06:48:41.704Z,72.29
2023-03-15T06:51:14.627Z,72.25
2023-03-15T06:53:41.705Z,72.36
2023-03-15T06:56:08.852Z,72.41
2023-03-15T06:58:35.751Z,72.20
2023-03-15T07:01:02.941Z,72.18
2023-03-15T07:03:29.837Z,72.23
2023-03-15T07:05:56.838Z,72.34
2023-03-15T07:08:25.381Z,72.18
2023-03-15T07:10:52.570Z,72.45
2023-03-15T07:13:20.720Z,72.63
2023-03-15T07:15:52.594Z,72.50
2023-03-15T07:18:19.733Z,72.64
2023-03-15T07:20:47.188Z,72.59
2023-03-15T07:23:15.228Z,72.66
2023-03-15T07:25:54.492Z,72.79
2023-03-15T07:28:23.491Z,72.63
2023-03-15T07:31:00.569Z,72.61
2023-03-15T07:33:30.304Z,72.70
2023-03-15T07:36:00.499Z,72.72
2023-03-15T07:38:31.493Z,72.57
2023-03-15T07:41:01.803Z,72.66
2023-03-15T07:43:29.597Z,72.47
2023-03-15T07:46:12.215Z,72.61
2023-03-15T07:48:40.176Z,72.71
2023-03-15T07:51:07.195Z,72.78
2023-03-15T07:53:34.045Z,73.00
2023-03-15T07:56:02.508Z,73.24
2023-03-15T07:58:29.360Z,73.24
2023-03-15T08:00:58.862Z,73.50
2023-03-15T08:03:27.708Z,73.98
2023-03-15T08:05:57.259Z,73.90
2023-03-15T08:08:24.362Z,74.30
2023-03-15T08:10:54.771Z,74.40
2023-03-15T08:13:21.723Z,74.30
2023-03-15T08:15:51.147Z,74.18
2023-03-15T08:18:19.735Z,74.35
2023-03-15T08:20:47.127Z,74.39
2023-03-15T08:23:16.696Z,74.15
2023-03-15T08:25:46.236Z,74.39
2023-03-15T08:28:14.505Z,74.21
2023-03-15T08:30:41.544Z,74.42
2023-03-15T08:33:08.967Z,74.61
2023-03-15T08:35:36.268Z,74.41
2023-03-15T08:38:03.379Z,74.59
2023-03-15T08:40:30.677Z,74.00
2023-03-15T08:42:58.226Z,74.28
2023-03-15T08:45:26.150Z,74.26
2023-03-15T08:47:58.417Z,73.98
2023-03-15T08:50:27.217Z,73.73
2023-03-15T08:52:54.565Z,74.03
2023-03-15T08:55:21.797Z,74.14
2023-03-15T08:57:48.724Z,74.39
2023-03-15T09:00:18.111Z,74.36
2023-03-15T09:02:45.179Z,74.43
2023-03-15T09:05:12.319Z,74.46
2023-03-15T09:07:44.873Z,74.35
2023-03-15T09:10:15.551Z,74.27
2023-03-15T09:12:50.485Z,74.58
2023-03-15T09:15:17.528Z,74.35
2023-03-15T09:17:45.927Z,74.55
2023-03-15T09:20:19.260Z,74.89
2023-03-15T09:22:52.668Z,74.57
2023-03-15T09:25:20.618Z,74.60
2023-03-15T09:27:47.747Z,74.61
2023-03-15T09:30:17.008Z,74.57
2023-03-15T09:32:44.333Z,74.81
2023-03-15T09:35:15.039Z,74.50
2023-03-15T09:37:42.649Z,74.75
2023-03-15T09:40:28.208Z,74.54
2023-03-15T09:43:07.197Z,74.79
2023-03-15T09:46:00.829Z,74.72
2023-03-15T09:48:36.199Z,74.59
2023-03-15T09:51:10.576Z,74.52
2023-03-15T09:53:46.423Z,74.66
2023-03-15T09:56:32.578Z,74.88
2023-03-15T09:59:01.911Z,75.14
2023-03-15T10:01:33.170Z,75.10
2023-03-15T10:04:10.806Z,75.05
2023-03-15T10:06:46.611Z,74.80
2023-03-15T10:09:18.187Z,74.69
2023-03-15T10:11:53.297Z,74.83
2023-03-15T10:14:39.598Z,74.49
2023-03-15T10:17:15.532Z,74.52
2023-03-15T10:20:06.774Z,74.42
2023-03-15T10:22:54.805Z,74.46
2023-03-15T10:25:31.333Z,74.49
2023-03-15T10:28:22.236Z,74.49
2023-03-15T10:30:51.725Z,74.58
2023-03-15T10:33:39.061Z,74.59
2023-03-15T10:36:15.786Z,74.52
2023-03-15T10:38:43.250Z,74.38
2023-03-15T10:41:17.897Z,74.46
2023-03-15T10:44:04.104Z,74.59
2023-03-15T10:46:32.330Z,74.68
2023-03-15T10:49:16.236Z,74.65
2023-03-15T10:51:46.550Z,74.69
2023-03-15T10:54:24.404Z,74.83
2023-03-15T10:57:14.688Z,74.48
2023-03-15T11:00:17.488Z,74.63
2023-03-15T11:02:52.997Z,74.29
2023-03-15T11:05:20.587Z,74.24
2023-03-15T11:07:56.138Z,74.39
2023-03-15T11:10:26.157Z,74.38
2023-03-15T11:13:19.911Z,74.38
2023-03-15T11:16:04.618Z,74.38
2023-03-15T11:18:43.131Z,74.51
2023-03-15T11:21:14.790Z,74.52
2023-03-15T11:23:51.199Z,74.31
2023-03-15T11:26:32.358Z,74.62
2023-03-15T11:29:06.149Z,74.63
2023-03-15T11:31:34.407Z,74.54
2023-03-15T11:34:25.615Z,74.54
2023-03-15T11:37:07.939Z,74.74
2023-03-15T11:40:05.072Z,74.47
2023-03-15T11:42:50.423Z,74.20
2023-03-15T11:45:25.512Z,74.36
2023-03-15T11:48:04.140Z,74.60
2023-03-15T11:50:30.938Z,74.87
2023-03-15T11:53:03.538Z,75.07
2023-03-15T11:55:39.234Z,74.66
2023-03-15T11:58:34.988Z,74.27
2023-03-15T12:01:06.534Z,73.80
2023-03-15T12:03:43.056Z,73.67
2023-03-15T12:06:37.703Z,74.08
2023-03-15T12:09:33.743Z,73.88
2023-03-15T12:12:27.010Z,73.68
2023-03-15T12:15:15.946Z,73.17
2023-03-15T12:17:52.974Z,73.06
2023-03-15T12:21:01.670Z,72.68
2023-03-15T12:23:40.172Z,72.51
2023-03-15T12:26:14.828Z,72.34
2023-03-15T12:29:00.820Z,72.43
2023-03-15T12:32:04.602Z,72.23
2023-03-15T12:34:50.379Z,71.81
2023-03-15T12:37:48.808Z,71.29
2023-03-15T12:40:15.765Z,71.20
2023-03-15T12:42:42.880Z,71.12
2023-03-15T12:45:16.000Z,70.73
2023-03-15T12:47:52.104Z,70.89
2023-03-15T12:50:47.197Z,71.01
2023-03-15T12:53:32.591Z,71.08
2023-03-15T12:56:32.825Z,71.17
2023-03-15T12:59:27.332Z,71.31
2023-03-15T13:01:55.193Z,71.52
2023-03-15T13:04:22.300Z,71.58
2023-03-15T13:07:18.009Z,71.54
2023-03-15T13:09:53.942Z,71.68
2023-03-15T13:12:35.566Z,71.83
2023-03-15T13:15:18.700Z,73.23
2023-03-15T13:18:02.990Z,73.89
2023-03-15T13:21:06.548Z,73.59
2023-03-15T13:23:37.227Z,74.13
2023-03-15T13:26:37.891Z,75.62
2023-03-15T13:29:07.546Z,76.28
2023-03-15T13:31:35.076Z,75.76
2023-03-15T13:34:16.993Z,74.88
2023-03-15T13:36:54.122Z,74.36
2023-03-15T13:39:30.759Z,71.63
2023-03-15T13:42:18.595Z,69.52
2023-03-15T13:44:45.771Z,68.86
2023-03-15T13:47:22.391Z,68.70
2023-03-15T13:49:53.048Z,69.08
2023-03-15T13:52:20.410Z,68.85
2023-03-15T13:54:47.471Z,68.47
2023-03-15T13:57:17.524Z,68.33
2023-03-15T13:59:52.992Z,68.74
2023-03-15T14:02:26.745Z,68.79
2023-03-15T14:04:58.509Z,69.99
2023-03-15T14:07:30.337Z,72.23
2023-03-15T14:10:19.163Z,70.96
2023-03-15T14:12:47.121Z,70.68
2023-03-15T14:15:41.470Z,69.42
2023-03-15T14:18:08.209Z,68.46
2023-03-15T14:20:47.122Z,67.88
2023-03-15T14:23:18.675Z,67.41
2023-03-15T14:25:52.639Z,66.20
2023-03-15T14:28:20.834Z,66.18
2023-03-15T14:30:56.749Z,65.94
2023-03-15T14:33:37.802Z,66.42
2023-03-15T14:36:10.037Z,66.14
2023-03-15T14:38:39.320Z,65.68
2023-03-15T14:41:28.031Z,66.25
2023-03-15T14:43:55.085Z,66.56
2023-03-15T14:46:21.980Z,66.16
2023-03-15T14:48:51.323Z,66.07
2023-03-15T14:51:20.862Z,66.23
2023-03-15T14:53:51.391Z,66.52
2023-03-15T14:56:19.866Z,67.00
2023-03-15T14:58:47.165Z,67.09
2023-03-15T15:01:18.064Z,67.08
2023-03-15T15:04:00.184Z,67.38
2023-03-15T15:06:30.035Z,67.19
2023-03-15T15:08:59.076Z,67.03
2023-03-15T15:11:26.599Z,67.41
2023-03-15T15:13:55.430Z,67.54
2023-03-15T15:16:22.673Z,67.38
2023-03-15T15:18:49.677Z,67.61
2023-03-15T15:21:27.360Z,67.80
2023-03-15T15:23:58.801Z,67.59
2023-03-15T15:26:29.911Z,66.97
2023-03-15T15:28:57.316Z,67.13
2023-03-15T15:31:26.308Z,67.08
2023-03-15T15:33:54.806Z,67.05
2023-03-15T15:36:25.338Z,67.02
2023-03-15T15:38:53.095Z,66.44
2023-03-15T15:41:24.565Z,66.41
2023-03-15T15:43:52.644Z,66.36
2023-03-15T15:46:20.122Z,66.58
2023-03-15T15:48:47.159Z,66.65
2023-03-15T15:51:17.275Z,66.68
2023-03-15T15:53:44.387Z,66.97
2023-03-15T15:56:14.907Z,67.08
2023-03-15T15:58:43.431Z,66.83
2023-03-15T16:01:13.854Z,67.02
2023-03-15T16:03:41.845Z,67.13
2023-03-15T16:06:20.854Z,66.89
2023-03-15T16:08:51.112Z,67.09
2023-03-15T16:11:19.033Z,66.95
2023-03-15T16:13:46.758Z,67.03
2023-03-15T16:16:16.022Z,67.17
2023-03-15T16:18:44.046Z,67.11
2023-03-15T16:21:34.540Z,67.12
2023-03-15T16:24:06.925Z,67.17
2023-03-15T16:26:36.438Z,67.11
2023-03-15T16:29:13.037Z,67.21
2023-03-15T16:31:40.309Z,67.20
2023-03-15T16:34:12.145Z,67.22
2023-03-15T16:36:43.770Z,67.59
2023-03-15T16:39:13.198Z,67.71
2023-03-15T16:41:41.976Z,67.84
2023-03-15T16:44:17.010Z,68.17
2023-03-15T16:46:44.019Z,68.21
2023-03-15T16:49:12.299Z,68.41
2023-03-15T16:51:45.305Z,68.30
2023-03-15T16:54:24.382Z,68.48
2023-03-15T16:57:01.660Z,68.31
2023-03-15T16:59:29.241Z,68.43
2023-03-15T17:01:56.938Z,68.66
2023-03-15T17:04:30.467Z,68.39
2023-03-15T17:06:58.837Z,68.20
2023-03-15T17:09:26.376Z,68.31
2023-03-15T17:11:53.816Z,68.50
2023-03-15T17:14:29.720Z,68.25
2023-03-15T17:16:56.750Z,68.46
2023-03-15T17:19:23.828Z,68.68
2023-03-15T17:21:51.884Z,68.92
2023-03-15T17:24:19.559Z,68.85
2023-03-15T17:26:47.070Z,68.97
2023-03-15T17:29:17.175Z,69.01
2023-03-15T17:31:45.138Z,68.79
2023-03-15T17:34:12.808Z,69.00
2023-03-15T17:36:41.817Z,68.86
2023-03-15T17:39:15.624Z,68.92
2023-03-15T17:41:49.241Z,68.96
2023-03-15T17:44:18.037Z,68.69
2023-03-15T17:46:45.081Z,69.03
2023-03-15T17:49:13.447Z,69.26
2023-03-15T17:51:43.285Z,69.04
2023-03-15T17:54:22.182Z,69.35
2023-03-15T17:56:51.584Z,69.30
2023-03-15T17:59:19.585Z,69.08
2023-03-15T18:01:48.898Z,69.29
2023-03-15T18:04:16.339Z,69.28
2023-03-15T18:06:43.385Z,69.58
2023-03-15T18:09:12.985Z,69.58
2023-03-15T18:11:46.289Z,69.82
2023-03-15T18:14:14.432Z,69.70
2023-03-15T18:16:42.702Z,69.85
2023-03-15T18:19:09.797Z,69.95
2023-03-15T18:21:42.014Z,69.75
2023-03-15T18:24:12.752Z,69.95
2023-03-15T18:26:39.650Z,69.90
2023-03-15T18:29:06.663Z,69.82
2023-03-15T18:31:35.240Z,69.72
2023-03-15T18:34:03.794Z,69.93
2023-03-15T18:36:33.105Z,69.82
2023-03-15T18:39:00.042Z,69.92
2023-03-15T18:41:28.173Z,70.05
2023-03-15T18:43:55.268Z,70.08
2023-03-15T18:46:24.734Z,70.08
2023-03-15T18:48:56.120Z,70.11
2023-03-15T18:51:25.864Z,70.11
2023-03-15T18:53:53.745Z,70.24
2023-03-15T18:56:26.221Z,70.03
2023-03-15T18:58:55.786Z,70.17
2023-03-15T19:01:24.643Z,70.28
2023-03-15T19:03:53.005Z,70.09
2023-03-15T19:06:22.971Z,70.38
2023-03-15T19:08:53.686Z,70.21
2023-03-15T19:11:24.580Z,70.29
2023-03-15T19:13:52.095Z,70.27
2023-03-15T19:16:21.206Z,70.46
2023-03-15T19:18:49.682Z,70.32
2023-03-15T19:21:19.017Z,70.33
2023-03-15T19:23:46.941Z,70.40
2023-03-15T19:26:15.685Z,70.33
2023-03-15T19:28:44.029Z,70.19
2023-03-15T19:31:11.536Z,70.25
2023-03-15T19:33:38.750Z,70.12
2023-03-15T19:36:06.680Z,70.18
2023-03-15T19:38:34.081Z,70.39
2023-03-15T19:41:06.136Z,70.25
2023-03-15T19:43:34.311Z,70.13
2023-03-15T19:46:02.115Z,70.40
2023-03-15T19:48:30.102Z,70.19
2023-03-15T19:50:57.289Z,70.36
2023-03-15T19:53:25.849Z,70.32
2023-03-15T19:55:53.196Z,70.18
2023-03-15T19:58:21.169Z,70.33
2023-03-15T20:00:52.205Z,70.13
2023-03-15T20:03:19.116Z,70.12
2023-03-15T20:05:47.016Z,70.13
2023-03-15T20:08:14.983Z,70.22
2023-03-15T20:10:44.075Z,70.12
2023-03-15T20:13:11.542Z,70.28
2023-03-15T20:15:40.033Z,70.27
2023-03-15T20:18:08.399Z,70.35
2023-03-15T20:20:36.615Z,70.07
2023-03-15T20:23:04.086Z,70.33
2023-03-15T20:25:32.813Z,70.08
2023-03-15T20:28:00.483Z,70.06
2023-03-15T20:30:27.577Z,70.15
2023-03-15T20:32:54.808Z,70.32
2023-03-15T20:35:24.031Z,70.28
2023-03-15T20:37:53.146Z,70.39
2023-03-15T20:40:21.573Z,70.36
2023-03-15T20:42:49.743Z,70.51
2023-03-15T20:45:16.756Z,70.22
2023-03-15T20:47:44.705Z,70.33
2023-03-15T20:50:14.316Z,70.32
2023-03-15T20:52:43.008Z,70.30
2023-03-15T20:55:17.110Z,70.40
2023-03-15T20:57:44.157Z,70.34
2023-03-15T21:00:17.095Z,70.26
2023-03-15T21:02:46.726Z,70.33
2023-03-15T21:05:13.938Z,70.52
2023-03-15T21:07:41.755Z,70.29
2023-03-15T21:10:11.123Z,70.52
2023-03-15T21:12:38.491Z,70.38
2023-03-15T21:15:06.652Z,70.32
2023-03-15T21:17:33.653Z,70.56
2023-03-15T21:20:01.458Z,70.38
2023-03-15T21:22:28.324Z,70.36
2023-03-15T21:24:56.407Z,70.38
2023-03-15T21:27:26.453Z,70.65
2023-03-15T21:29:57.791Z,70.96
2023-03-15T21:32:25.236Z,70.87
2023-03-15T21:34:53.661Z,70.95
2023-03-15T21:37:20.631Z,71.06
2023-03-15T21:39:49.321Z,71.12
2023-03-15T21:42:16.586Z,71.16
2023-03-15T21:44:43.439Z,70.83
2023-03-15T21:47:14.788Z,71.04
2023-03-15T21:49:45.184Z,71.25
2023-03-15T21:52:12.875Z,71.34
2023-03-15T21:54:40.727Z,71.30
2023-03-15T21:57:07.793Z,71.33
2023-03-15T21:59:35.313Z,71.46
2023-03-15T22:02:04.709Z,71.60
2023-03-15T22:04:34.258Z,71.40
2023-03-15T22:07:01.354Z,71.50
2023-03-15T22:09:28.192Z,71.42
2023-03-15T22:11:56.156Z,71.43
2023-03-15T22:14:23.288Z,71.21
2023-03-15T22:16:51.843Z,71.33
2023-03-15T22:19:18.969Z,71.21
2023-03-15T22:21:46.204Z,71.27
2023-03-15T22:24:13.416Z,71.43
2023-03-15T22:26:40.694Z,71.41
2023-03-15T22:29:09.324Z,71.49
2023-03-15T22:31:38.311Z,71.56
2023-03-15T22:34:07.150Z,71.63
2023-03-15T22:36:34.770Z,71.73
2023-03-15T22:39:02.515Z,71.84
2023-03-15T22:41:30.419Z,71.84
2023-03-15T22:43:57.951Z,71.83
2023-03-15T22:46:29.436Z,71.83
2023-03-15T22:48:56.825Z,72.07
2023-03-15T22:51:24.132Z,72.07
2023-03-15T22:53:51.314Z,72.06
2023-03-15T22:56:18.206Z,72.12
2023-03-15T22:58:45.112Z,72.20
2023-03-15T23:01:11.947Z,72.30
2023-03-15T23:03:39.016Z,72.21
2023-03-15T23:06:06.801Z,72.15
2023-03-15T23:08:33.708Z,72.21
2023-03-15T23:11:01.245Z,72.30
2023-03-15T23:13:28.121Z,72.03
2023-03-15T23:15:55.474Z,72.06
2023-03-15T23:18:22.407Z,72.35
2023-03-15T23:20:50.000Z,72.33
2023-03-15T23:23:17.708Z,72.13
2023-03-15T23:25:46.156Z,72.39
2023-03-15T23:28:14.016Z,72.36
2023-03-15T23:30:46.080Z,72.29
2023-03-15T23:33:15.075Z,72.25
2023-03-15T23:35:42.373Z,72.43
2023-03-15T23:38:09.451Z,72.45
2023-03-15T23:40:36.330Z,72.43
2023-03-15T23:43:04.720Z,72.44
2023-03-15T23:45:31.908Z,72.47
2023-03-15T23:47:58.947Z,72.56
2023-03-15T23:50:26.961Z,72.61
2023-03-15T23:52:57.070Z,72.53
2023-03-15T23:55:24.764Z,72.59
2023-03-15T23:57:51.787Z,72.65
